Time;durP1;ratioP1;P1;durP2;ratioP2;P2;SDS_P1;SDS_P2;PMS_P1;PMS_P2;Temp;Humidity;BMP_temperature;BMP_pressure;BME280_temperature;BME280_humidity;BME280_pressure;Samples;Min_cycle;Max_cycle;Signal;HPM_P1;HPM_P2
2024/03/05 00:00:09;;;;;;;25.50;18.90;;;;;;;10.53;80.34;95061.75;5031662;28;20229;-83
2024/03/05 00:02:37;;;;;;;24.73;18.97;;;;;;;10.53;80.53;95064.31;5047410;28;20200;-82
2024/03/05 00:05:04;;;;;;;26.73;19.93;;;;;;;10.54;80.79;95078.78;5050818;28;20237;-83
2024/03/05 00:07:31;;;;;;;24.47;19.40;;;;;;;10.55;80.73;95070.06;5050875;28;20860;-84
2024/03/05 00:09:58;;;;;;;26.20;20.30;;;;;;;10.54;80.83;95071.84;5051214;28;20221;-84
2024/03/05 00:12:25;;;;;;;22.97;18.80;;;;;;;10.53;81.07;95070.25;5028944;28;20198;-83
2024/03/05 00:14:51;;;;;;;27.90;19.20;;;;;;;10.53;80.75;95072.03;5010870;28;20203;-83
2024/03/05 00:17:18;;;;;;;25.17;19.60;;;;;;;10.48;81.39;95089.81;5025111;28;20284;-84
2024/03/05 00:19:44;;;;;;;26.27;19.73;;;;;;;10.47;81.50;95106.25;5051915;28;20233;-84
2024/03/05 00:22:10;;;;;;;24.23;19.17;;;;;;;10.42;81.72;95108.56;5052451;28;20213;-84
2024/03/05 00:24:37;;;;;;;26.30;19.23;;;;;;;10.43;81.82;95113.53;5052072;28;20766;-83
2024/03/05 00:27:04;;;;;;;26.73;19.60;;;;;;;10.45;81.49;95110.78;5052448;28;20205;-84
2024/03/05 00:29:31;;;;;;;26.10;19.53;;;;;;;10.45;81.41;95103.06;5055863;28;20225;-84
2024/03/05 00:32:01;;;;;;;25.93;19.50;;;;;;;10.44;81.75;95106.59;5056363;28;20316;-83
2024/03/05 00:34:28;;;;;;;27.20;19.60;;;;;;;10.43;81.67;95110.97;5052438;28;20201;-83
2024/03/05 00:36:55;;;;;;;26.60;19.83;;;;;;;10.41;81.84;95112.13;5057470;28;20210;-83
2024/03/05 00:39:21;;;;;;;24.83;19.30;;;;;;;10.38;81.93;95111.53;5057560;28;20404;-84
2024/03/05 00:41:48;;;;;;;24.53;18.57;;;;;;;10.39;82.01;95115.69;5057689;28;20205;-83
2024/03/05 00:44:16;;;;;;;26.97;19.50;;;;;;;10.38;82.10;95111.53;5056445;28;20734;-83
2024/03/05 00:46:42;;;;;;;24.40;18.87;;;;;;;10.40;81.96;95116.47;5057023;28;20228;-85
2024/03/05 00:49:09;;;;;;;25.57;19.70;;;;;;;10.42;81.99;95117.09;5042917;28;20229;-84
2024/03/05 00:51:35;;;;;;;25.40;19.13;;;;;;;10.44;81.94;95107.41;5049098;28;20213;-83
2024/03/05 00:54:02;;;;;;;26.27;19.70;;;;;;;10.48;81.59;95111.19;5057408;28;20201;-84
2024/03/05 00:56:29;;;;;;;25.57;19.17;;;;;;;10.48;81.46;95103.47;5056187;28;20586;-84
2024/03/05 00:58:56;;;;;;;31.00;19.47;;;;;;;10.49;81.34;95107.66;5055281;28;20209;-83
2024/03/05 01:01:23;;;;;;;26.20;19.43;;;;;;;10.48;81.44;95102.69;5055057;28;20194;-83
2024/03/05 01:03:50;;;;;;;24.93;18.73;;;;;;;10.50;81.26;95091.22;5055857;28;20205;-83
2024/03/05 01:06:16;;;;;;;26.93;19.30;;;;;;;10.50;81.36;95101.53;5051387;28;20229;-84
2024/03/05 01:08:43;;;;;;;24.67;18.73;;;;;;;10.52;80.92;95098.75;5055909;28;20237;-84
2024/03/05 01:11:09;;;;;;;25.70;18.93;;;;;;;10.47;81.03;95093.38;5054176;28;20233;-83
2024/03/05 01:13:37;;;;;;;27.90;20.67;;;;;;;10.49;81.08;95099.13;5027415;28;20213;-83
2024/03/05 01:16:05;;;;;;;26.50;18.93;;;;;;;10.47;81.32;95096.75;5036455;28;20854;-84
2024/03/05 01:18:36;;;;;;;27.87;19.73;;;;;;;10.42;81.14;95093.13;5036577;28;20275;-83
2024/03/05 01:21:03;;;;;;;24.10;18.60;;;;;;;10.41;80.95;95094.91;5034725;28;20225;-84
2024/03/05 01:23:30;;;;;;;25.50;19.50;;;;;;;10.39;81.13;95095.09;5054342;28;20218;-83
2024/03/05 01:25:58;;;;;;;26.60;19.17;;;;;;;10.41;80.70;95086.38;5055004;28;20225;-83
2024/03/05 01:28:28;;;;;;;26.20;18.67;;;;;;;10.42;80.77;95081.06;5054449;28;20296;-83
2024/03/05 01:30:54;;;;;;;28.03;19.60;;;;;;;10.41;80.75;95082.03;5055306;28;20279;-83
2024/03/05 01:33:21;;;;;;;25.87;19.07;;;;;;;10.42;80.78;95085.41;5054220;28;20198;-83
2024/03/05 01:35:49;;;;;;;22.97;18.00;;;;;;;10.42;80.94;95087.97;5054592;28;20194;-83
2024/03/05 01:38:14;;;;;;;26.00;18.97;;;;;;;10.38;80.91;95087.59;5051553;28;20259;-83
2024/03/05 01:40:41;;;;;;;25.73;18.57;;;;;;;10.34;81.39;95097.47;5054564;28;20233;-84
2024/03/05 01:43:07;;;;;;;27.77;19.07;;;;;;;10.30;81.42;95100.56;5054898;28;20205;-83
2024/03/05 01:45:34;;;;;;;25.20;19.20;;;;;;;10.30;81.40;95096.22;5040099;28;20253;-83
2024/03/05 01:48:01;;;;;;;25.80;19.93;;;;;;;10.33;81.26;95097.63;5025333;28;20221;-83
2024/03/05 01:50:28;;;;;;;29.33;19.83;;;;;;;10.28;81.57;95092.25;5015481;28;20631;-83
2024/03/05 01:52:57;;;;;;;29.73;21.03;;;;;;;10.33;81.20;95095.06;5015496;28;20578;-83
2024/03/05 01:55:25;;;;;;;30.73;20.73;;;;;;;10.34;81.04;95094.88;5048436;28;20293;-83
2024/03/05 01:57:52;;;;;;;30.83;19.93;;;;;;;10.33;81.37;95089.91;5054846;28;20201;-83
2024/03/05 02:00:20;;;;;;;29.47;20.30;;;;;;;10.30;81.43;95098.81;5054999;28;20312;-83
2024/03/05 02:02:49;;;;;;;28.03;19.80;;;;;;;10.30;81.36;95096.22;5054369;28;20201;-83
2024/03/05 02:05:16;;;;;;;31.17;20.40;;;;;;;10.29;81.98;95109.28;5053952;28;20626;-83
2024/03/05 02:07:43;;;;;;;27.60;19.93;;;;;;;10.26;81.75;95097.56;5054530;28;20247;-85
2024/03/05 02:10:12;;;;;;;28.90;20.37;;;;;;;10.26;81.62;95097.56;5039166;28;20228;-84
2024/03/05 02:12:40;;;;;;;27.10;20.73;;;;;;;10.29;81.84;95101.56;5047781;28;20251;-84
2024/03/05 02:15:11;;;;;;;29.30;20.60;;;;;;;10.29;81.92;95106.69;5054262;28;20197;-84
2024/03/05 02:17:37;;;;;;;29.00;20.83;;;;;;;10.28;81.85;95107.69;5054689;28;20668;-83
2024/03/05 02:20:05;;;;;;;31.57;21.33;;;;;;;10.28;81.61;95105.13;5054435;28;20222;-84
2024/03/05 02:22:32;;;;;;;28.40;20.90;;;;;;;10.26;82.15;95109.66;5054424;28;20303;-84
2024/03/05 02:24:59;;;;;;;29.07;21.07;;;;;;;10.30;82.18;95105.72;5054099;28;20279;-84
2024/03/05 02:27:25;;;;;;;31.90;20.17;;;;;;;10.24;82.37;95120.13;5050764;28;20208;-85
2024/03/05 02:29:53;;;;;;;29.77;21.03;;;;;;;10.24;82.24;95116.75;5054341;28;20236;-84
2024/03/05 02:32:20;;;;;;;29.60;20.70;;;;;;;10.26;81.90;95107.06;5054703;28;20696;-83
2024/03/05 02:34:46;;;;;;;29.70;20.80;;;;;;;10.25;82.26;95103.69;5052633;28;20224;-83
2024/03/05 02:37:12;;;;;;;30.47;21.87;;;;;;;10.27;81.87;95108.66;5054220;28;20243;-84
2024/03/05 02:39:40;;;;;;;31.50;21.90;;;;;;;10.30;81.59;95106.53;5054158;28;20749;-84
2024/03/05 02:42:07;;;;;;;30.33;21.93;;;;;;;10.26;81.69;95096.78;5035494;28;20201;-84
2024/03/05 02:44:33;;;;;;;30.83;22.07;;;;;;;10.25;81.80;95108.06;5027739;28;20631;-84
2024/03/05 02:46:59;;;;;;;31.37;21.47;;;;;;;10.20;81.87;95108.59;5053979;28;20225;-84
2024/03/05 02:49:27;;;;;;;30.63;21.93;;;;;;;10.25;81.92;95113.19;5039981;28;20214;-83
2024/03/05 02:51:54;;;;;;;33.77;23.00;;;;;;;10.22;82.10;95123.84;5032648;28;20205;-84
2024/03/05 02:54:21;;;;;;;29.17;20.93;;;;;;;10.24;82.07;95121.91;5033686;28;20208;-83
2024/03/05 02:56:49;;;;;;;30.90;21.80;;;;;;;10.26;81.86;95118.16;5033478;28;20194;-83
2024/03/05 02:59:16;;;;;;;30.40;21.30;;;;;;;10.27;81.82;95124.91;5043379;28;20577;-84
2024/03/05 03:01:47;;;;;;;28.60;21.60;;;;;;;10.25;81.80;95115.78;5054341;28;20216;-83
2024/03/05 03:04:15;;;;;;;31.27;21.83;;;;;;;10.18;82.02;95117.47;5053746;28;20637;-83
2024/03/05 03:06:41;;;;;;;30.63;22.10;;;;;;;10.16;82.60;95135.66;5023276;28;20302;-84
2024/03/05 03:09:08;;;;;;;30.87;22.10;;;;;;;10.21;82.36;95135.13;5014945;28;20233;-83
2024/03/05 03:11:34;;;;;;;29.63;21.40;;;;;;;10.19;82.63;95142.25;5013334;28;20194;-84
2024/03/05 03:14:03;;;;;;;29.20;21.67;;;;;;;10.20;82.44;95141.28;5014696;28;20643;-84
2024/03/05 03:16:30;;;;;;;33.30;23.10;;;;;;;10.21;82.58;95148.78;5052953;28;20201;-85
2024/03/05 03:18:58;;;;;;;30.70;21.27;;;;;;;10.20;82.51;95139.47;5053316;28;20206;-83
2024/03/05 03:21:24;;;;;;;30.53;21.93;;;;;;;10.13;82.85;95138.59;5053984;28;20197;-83
2024/03/05 03:23:51;;;;;;;32.20;23.00;;;;;;;10.19;82.33;95131.97;5052898;28;20233;-84
2024/03/05 03:26:18;;;;;;;32.93;21.17;;;;;;;10.21;82.21;95119.69;5053170;28;20234;-83
2024/03/05 03:28:44;;;;;;;30.33;21.40;;;;;;;10.16;82.56;95116.88;5052796;28;20201;-83
2024/03/05 03:31:13;;;;;;;33.40;22.47;;;;;;;10.09;82.78;95124.50;5050000;28;20316;-84
2024/03/05 03:33:39;;;;;;;33.83;22.07;;;;;;;10.05;83.32;95146.44;5052702;28;20680;-84
2024/03/05 03:36:06;;;;;;;31.47;22.53;;;;;;;10.04;83.00;95148.22;5053518;28;20232;-83
2024/03/05 03:38:35;;;;;;;29.73;21.73;;;;;;;10.03;83.14;95148.38;5030294;28;20234;-84
2024/03/05 03:41:01;;;;;;;30.47;21.97;;;;;;;10.08;83.09;95158.13;5004506;28;20234;-83
2024/03/05 03:43:28;;;;;;;30.07;21.83;;;;;;;10.12;82.94;95156.78;5033901;28;20202;-83
2024/03/05 03:45:54;;;;;;;31.20;20.80;;;;;;;10.13;82.58;95140.38;5033665;28;20226;-84
2024/03/05 03:48:22;;;;;;;33.57;22.47;;;;;;;10.11;82.49;95140.56;5044135;28;20202;-84
2024/03/05 03:50:48;;;;;;;32.77;23.37;;;;;;;10.11;82.20;95142.34;5053191;28;20228;-84
2024/03/05 03:53:15;;;;;;;34.57;23.43;;;;;;;10.12;81.74;95133.66;5053351;28;20210;-83
2024/03/05 03:55:41;;;;;;;30.70;22.20;;;;;;;10.08;81.97;95138.34;5052724;28;20198;-83
2024/03/05 03:58:08;;;;;;;30.90;22.97;;;;;;;10.08;82.06;95138.34;5053078;28;20227;-83
2024/03/05 04:00:37;;;;;;;33.63;23.00;;;;;;;10.10;81.71;95138.19;5052990;28;20225;-84
2024/03/05 04:03:06;;;;;;;29.37;22.03;;;;;;;10.13;81.94;95150.66;5032912;28;20208;-84
2024/03/05 04:05:34;;;;;;;32.57;22.10;;;;;;;10.13;81.73;95143.75;5057022;28;20248;-84
2024/03/05 04:08:01;;;;;;;30.83;21.77;;;;;;;10.11;81.76;95152.63;5056284;28;20202;-84
2024/03/05 04:10:28;;;;;;;31.57;22.53;;;;;;;10.12;81.91;95149.06;5056046;28;20231;-84
2024/03/05 04:12:55;;;;;;;31.00;22.87;;;;;;;10.13;81.83;95161.75;5026463;28;20316;-83
2024/03/05 04:15:22;;;;;;;33.90;23.67;;;;;;;10.15;81.44;95159.81;5017617;28;20210;-83
2024/03/05 04:17:49;;;;;;;31.00;22.00;;;;;;;10.14;81.46;95167.69;5016622;28;20777;-84
2024/03/05 04:20:16;;;;;;;34.17;23.63;;;;;;;10.16;81.31;95156.25;5037073;28;20225;-83
2024/03/05 04:22:44;;;;;;;31.70;22.03;;;;;;;10.12;81.83;95164.50;5056319;28;20213;-84
2024/03/05 04:25:11;;;;;;;35.20;23.00;;;;;;;10.09;81.45;95165.66;5054824;28;20212;-84
2024/03/05 04:27:45;;;;;;;30.47;22.03;;;;;;;10.10;81.29;95169.03;5055200;28;20232;-84
2024/03/05 04:30:13;;;;;;;31.80;22.97;;;;;;;10.10;81.66;95174.97;5054426;28;20728;-83
2024/03/05 04:32:46;;;;;;;32.17;21.60;;;;;;;9.99;82.03;95184.00;5054671;28;20212;-84
2024/03/05 04:35:12;;;;;;;33.77;23.30;;;;;;;9.95;82.53;95187.09;5031793;28;20705;-84
2024/03/05 04:37:40;;;;;;;32.50;22.47;;;;;;;9.98;82.25;95189.31;5054699;28;20279;-84
2024/03/05 04:40:10;;;;;;;31.87;22.37;;;;;;;10.00;82.35;95187.34;5054963;28;20221;-84
2024/03/05 04:42:37;;;;;;;32.20;22.43;;;;;;;10.04;81.82;95186.78;5055146;28;20233;-83
2024/03/05 04:45:04;;;;;;;31.63;22.60;;;;;;;10.04;81.85;95183.41;5054669;28;20221;-83
2024/03/05 04:47:31;;;;;;;30.53;21.53;;;;;;;10.03;81.74;95180.06;5046309;28;20594;-83
2024/03/05 04:49:57;;;;;;;32.70;21.80;;;;;;;10.02;81.75;95181.03;5017195;28;20234;-85
2024/03/05 04:52:27;;;;;;;31.00;22.00;;;;;;;10.04;81.82;95181.66;5040598;28;20261;-83
2024/03/05 04:54:54;;;;;;;32.07;21.70;;;;;;;10.07;81.63;95175.34;5053585;28;20221;-84
2024/03/05 04:57:21;;;;;;;30.33;20.87;;;;;;;10.08;81.45;95171.00;5054419;28;20269;-84
2024/03/05 04:59:48;;;;;;;34.20;22.20;;;;;;;10.09;81.38;95172.59;5014907;28;20219;-83
2024/03/05 05:02:15;;;;;;;32.40;22.03;;;;;;;10.07;81.39;95159.91;5017105;28;20792;-83
2024/03/05 05:04:42;;;;;;;32.80;23.10;;;;;;;10.02;81.55;95168.16;5016417;28;20849;-83
2024/03/05 05:07:09;;;;;;;32.43;22.33;;;;;;;9.97;81.80;95172.28;5018828;28;20222;-83
2024/03/05 05:09:36;;;;;;;31.80;22.03;;;;;;;9.96;81.69;95180.97;5055037;28;20229;-83
2024/03/05 05:12:03;;;;;;;31.23;21.93;;;;;;;9.98;81.62;95182.41;5038836;28;20895;-83
2024/03/05 05:14:31;;;;;;;34.20;22.73;;;;;;;9.99;81.71;95190.91;5014352;28;20253;-84
2024/03/05 05:16:58;;;;;;;30.23;21.03;;;;;;;9.98;81.99;95182.41;5015906;28;20297;-83
2024/03/05 05:19:25;;;;;;;33.43;23.43;;;;;;;9.99;81.77;95190.91;5015463;28;20313;-84
2024/03/05 05:21:52;;;;;;;32.77;22.63;;;;;;;9.97;81.83;95195.44;5025146;28;20210;-83
2024/03/05 05:24:19;;;;;;;36.90;22.87;;;;;;;9.94;82.11;95200.94;5042813;28;20244;-84
2024/03/05 05:26:46;;;;;;;35.83;23.43;;;;;;;9.90;81.93;95202.28;5054903;28;20257;-84
2024/03/05 05:29:13;;;;;;;33.73;23.03;;;;;;;9.88;82.41;95211.94;5050672;28;20221;-83
2024/03/05 05:31:41;;;;;;;34.40;23.97;;;;;;;9.87;82.59;95212.91;5030146;28;20210;-83
2024/03/05 05:34:08;;;;;;;34.87;23.37;;;;;;;9.82;82.99;95222.94;5032316;28;20672;-84
2024/03/05 05:36:34;;;;;;;34.57;23.50;;;;;;;9.78;83.25;95227.66;5035935;28;20236;-83
2024/03/05 05:39:01;;;;;;;31.80;22.07;;;;;;;9.78;83.28;95222.53;5035791;28;20202;-83
2024/03/05 05:41:27;;;;;;;33.83;23.17;;;;;;;9.79;83.25;95226.69;5053429;28;20269;-83
2024/03/05 05:43:54;;;;;;;32.73;24.03;;;;;;;9.76;83.59;95233.97;5049753;28;20209;-84
2024/03/05 05:46:22;;;;;;;36.00;23.90;;;;;;;9.78;83.15;95226.88;5023547;28;20218;-83
2024/03/05 05:48:52;;;;;;;33.80;23.00;;;;;;;9.82;83.27;95233.22;5026511;28;20191;-84
2024/03/05 05:51:21;;;;;;;36.67;24.20;;;;;;;9.84;83.23;95233.84;5014683;28;20226;-85
2024/03/05 05:53:49;;;;;;;32.47;22.90;;;;;;;9.86;82.78;95226.75;5033540;28;20194;-83
2024/03/05 05:56:17;;;;;;;32.43;23.23;;;;;;;9.82;83.20;95236.59;5041005;28;20205;-84
2024/03/05 05:58:43;;;;;;;32.80;22.60;;;;;;;9.84;83.15;95231.25;5054131;28;20244;-85
2024/03/05 06:01:13;;;;;;;33.83;22.43;;;;;;;9.86;82.97;95235.25;5053537;28;20268;-84
2024/03/05 06:03:42;;;;;;;34.27;23.97;;;;;;;9.86;83.16;95232.69;5054364;28;20208;-84
2024/03/05 06:06:12;;;;;;;31.47;21.60;;;;;;;9.87;83.11;95230.91;5039380;28;20233;-84
2024/03/05 06:08:39;;;;;;;30.90;22.27;;;;;;;9.92;82.75;95228.59;5014844;28;20202;-84
2024/03/05 06:11:06;;;;;;;32.40;22.03;;;;;;;9.93;83.30;95243.84;5014448;28;20809;-84
2024/03/05 06:13:32;;;;;;;33.37;22.70;;;;;;;9.91;83.17;95227.81;5049008;28;20272;-84
2024/03/05 06:15:59;;;;;;;30.60;22.37;;;;;;;9.94;83.31;95242.09;5054422;28;20205;-83
2024/03/05 06:18:29;;;;;;;33.73;23.10;;;;;;;9.94;83.41;95242.88;5054256;28;20229;-84
2024/03/05 06:20:56;;;;;;;32.87;23.33;;;;;;;9.94;82.90;95229.22;5053386;28;20228;-85
2024/03/05 06:23:24;;;;;;;36.50;23.20;;;;;;;9.96;82.82;95235.78;5054452;28;20259;-84
2024/03/05 06:25:50;;;;;;;33.97;22.20;;;;;;;10.01;82.77;95232.66;5046138;28;20233;-84
2024/03/05 06:28:19;;;;;;;33.60;22.67;;;;;;;10.00;82.34;95223.38;5031476;28;20209;-84
2024/03/05 06:30:46;;;;;;;31.97;22.73;;;;;;;9.98;82.22;95226.13;5053935;28;20225;-84
2024/03/05 06:33:13;;;;;;;35.90;23.20;;;;;;;10.02;82.30;95224.75;5052826;28;20229;-84
2024/03/05 06:35:40;;;;;;;32.77;22.93;;;;;;;10.00;82.45;95228.50;5053434;28;20228;-84
2024/03/05 06:38:08;;;;;;;39.37;27.93;;;;;;;10.04;82.00;95225.38;5053282;28;20209;-83
2024/03/05 06:40:39;;;;;;;37.13;27.73;;;;;;;10.07;81.88;95226.78;5053482;28;20232;-84
2024/03/05 06:43:12;;;;;;;48.40;35.77;;;;;;;10.05;81.93;95233.88;5053290;28;20224;-84
2024/03/05 06:45:42;;;;;;;33.13;23.70;;;;;;;10.03;81.93;95235.84;5050689;28;20202;-85
2024/03/05 06:48:12;;;;;;;33.73;23.73;;;;;;;10.04;81.92;95230.50;5050171;28;20226;-84
2024/03/05 06:50:41;;;;;;;32.13;23.33;;;;;;;10.04;81.50;95229.72;5032641;28;20245;-84
2024/03/05 06:58:41;;;;;;;32.50;21.57;;;;;;;9.90;82.62;95261.41;5033855;28;20677;-84
2024/03/05 07:01:08;;;;;;;30.67;22.13;;;;;;;9.90;82.30;95249.34;5041757;28;20317;-84
2024/03/05 07:03:35;;;;;;;29.27;21.50;;;;;;;9.91;82.49;95257.88;5058710;28;20206;-85
2024/03/05 07:06:06;;;;;;;30.30;21.57;;;;;;;9.91;82.53;95263.00;5061838;28;20206;-84
2024/03/05 07:08:33;;;;;;;31.47;21.83;;;;;;;9.91;82.39;95268.94;5062445;28;20201;-85
2024/03/05 07:11:01;;;;;;;34.27;22.90;;;;;;;9.90;82.47;95272.50;5061324;28;20271;-84
2024/03/05 07:13:28;;;;;;;33.13;22.83;;;;;;;9.92;82.60;95273.13;5014734;28;20829;-85
2024/03/05 07:15:56;;;;;;;33.80;22.20;;;;;;;9.90;82.64;95280.22;5015313;28;20226;-84
2024/03/05 07:18:23;;;;;;;32.23;23.07;;;;;;;9.95;82.48;95272.75;5053714;28;20295;-84
2024/03/05 07:20:49;;;;;;;31.43;22.13;;;;;;;9.95;82.41;95275.34;5054568;28;20225;-84
2024/03/05 07:23:16;;;;;;;31.83;22.13;;;;;;;9.94;82.16;95271.16;5035546;28;20236;-84
2024/03/05 07:25:43;;;;;;;37.23;22.93;;;;;;;9.91;82.34;95279.22;5029763;28;20198;-84
2024/03/05 07:28:11;;;;;;;33.73;22.70;;;;;;;9.93;82.34;95282.44;5035355;28;21022;-84
2024/03/05 07:30:37;;;;;;;32.13;21.23;;;;;;;9.95;82.18;95272.75;5034869;28;20290;-85
2024/03/05 07:33:04;;;;;;;29.30;21.80;;;;;;;9.96;81.82;95258.13;5033602;28;20225;-84
2024/03/05 07:35:31;;;;;;;31.73;21.77;;;;;;;9.94;81.64;95262.66;5054239;28;20810;-84
2024/03/05 07:37:57;;;;;;;33.47;23.07;;;;;;;9.97;81.75;95264.88;5050444;28;20224;-83
2024/03/05 07:40:24;;;;;;;35.53;22.33;;;;;;;9.93;82.04;95269.56;5012382;28;20230;-85
2024/03/05 07:42:54;;;;;;;31.70;22.30;;;;;;;10.00;81.68;95270.47;5013168;28;20218;-84
2024/03/05 07:45:23;;;;;;;33.47;21.73;;;;;;;10.02;81.47;95272.81;5011654;28;20203;-84
2024/03/05 07:47:51;;;;;;;30.80;21.80;;;;;;;10.03;81.25;95262.34;5025896;28;20792;-84
2024/03/05 07:50:18;;;;;;;32.97;22.10;;;;;;;10.04;81.08;95256.22;5045470;28;20240;-84
2024/03/05 07:52:46;;;;;;;34.20;22.03;;;;;;;10.08;81.05;95258.44;5017184;28;20218;-84
2024/03/05 07:55:14;;;;;;;31.23;22.33;;;;;;;10.10;80.97;95254.72;5031470;28;20209;-83
2024/03/05 07:57:41;;;;;;;34.30;22.40;;;;;;;10.16;80.59;95258.34;5032768;28;20233;-84
2024/03/05 08:00:11;;;;;;;32.20;21.63;;;;;;;10.18;80.32;95243.53;5036376;28;20271;-83
2024/03/05 08:02:41;;;;;;;35.97;22.97;;;;;;;10.15;80.15;95244.69;5033992;28;20604;-84
2024/03/05 08:05:07;;;;;;;34.83;22.87;;;;;;;10.19;80.64;95251.09;5037260;28;20221;-84
2024/03/05 08:07:35;;;;;;;33.17;23.40;;;;;;;10.18;80.09;95249.47;5052628;28;20899;-83
2024/03/05 08:10:06;;;;;;;30.63;22.37;;;;;;;10.16;80.19;95246.28;5053269;28;20220;-84
2024/03/05 08:12:33;;;;;;;36.53;23.23;;;;;;;10.18;80.35;95251.25;5028664;28;20659;-83
2024/03/05 08:15:00;;;;;;;30.40;22.63;;;;;;;10.19;80.09;95260.59;5014996;28;20203;-85
2024/03/05 08:17:26;;;;;;;31.13;22.30;;;;;;;10.15;80.41;95254.19;5012291;28;20203;-85
2024/03/05 08:19:54;;;;;;;31.63;22.43;;;;;;;10.14;80.32;95253.38;5021495;28;20731;-84
2024/03/05 08:22:21;;;;;;;32.83;22.27;;;;;;;10.08;80.82;95266.97;5044412;28;20702;-84
2024/03/05 08:24:49;;;;;;;31.37;21.90;;;;;;;10.11;80.88;95270.94;5051931;28;20209;-84
2024/03/05 08:27:16;;;;;;;30.67;21.80;;;;;;;10.07;81.08;95273.09;5052226;28;20233;-84
2024/03/05 08:33:19;;;;;;;31.10;21.63;;;;;;;10.04;81.41;95292.25;5020555;28;20320;-84
2024/03/05 08:39:29;;;;;;;34.70;22.37;;;;;;;9.99;81.27;95288.63;4971778;28;20244;-84
2024/03/05 08:42:49;;;;;;;31.27;21.60;;;;;;;10.04;81.43;95284.53;5051776;28;20198;-84
2024/03/05 08:49:06;;;;;;;31.53;21.67;;;;;;;10.18;81.26;95288.06;4923835;28;20233;-85
2024/03/05 09:04:45;;;;;;;21.97;16.00;;;;;;;10.15;81.08;95285.84;4958782;29;20224;-84
2024/03/05 09:07:24;;;;;;;24.43;16.50;;;;;;;10.15;81.07;95290.19;5038292;28;20214;-84
2024/03/05 09:12:51;;;;;;;22.67;14.97;;;;;;;10.15;80.60;95283.28;5024680;28;20298;-84
2024/03/05 09:15:17;;;;;;;20.00;14.40;;;;;;;10.17;80.00;95272.81;5028286;28;20209;-84
2024/03/05 09:17:44;;;;;;;21.17;15.40;;;;;;;10.14;79.78;95275.75;5031175;28;20190;-83
2024/03/05 09:20:26;;;;;;;22.07;14.40;;;;;;;10.15;80.04;95278.13;5038223;28;20226;-84
2024/03/05 09:23:19;;;;;;;23.67;14.33;;;;;;;10.12;79.68;95268.19;5036516;28;20206;-84
2024/03/05 09:26:08;;;;;;;19.47;14.63;;;;;;;10.16;80.04;95277.16;5041767;28;20213;-84
2024/03/05 09:29:06;;;;;;;20.33;13.50;;;;;;;10.12;78.70;95245.06;5060502;28;20267;-84
2024/03/05 09:31:48;;;;;;;16.57;12.77;;;;;;;10.12;79.84;95275.13;5051357;28;20198;-84
2024/03/05 09:34:35;;;;;;;17.50;12.90;;;;;;;10.08;80.89;95302.97;5055979;28;20288;-84
2024/03/05 09:37:28;;;;;;;14.73;11.10;;;;;;;10.01;80.90;95284.88;5056697;28;20262;-84
2024/03/05 09:46:21;;;;;;;17.47;11.30;;;;;;;10.08;81.95;95335.63;4926520;29;20213;-85
2024/03/05 09:51:43;;;;;;;18.47;11.33;;;;;;;10.15;81.33;95314.16;5027143;28;20198;-84
2024/03/05 09:54:30;;;;;;;13.83;10.17;;;;;;;10.19;81.07;95306.91;5035187;28;20676;-84
2024/03/05 09:56:59;;;;;;;13.87;10.20;;;;;;;10.20;78.91;95247.53;5039255;28;20242;-83
2024/03/05 09:59:39;;;;;;;13.20;10.40;;;;;;;10.24;78.90;95253.09;5053015;28;20304;-83
2024/03/05 10:02:38;;;;;;;13.47;10.70;;;;;;;10.37;79.95;95279.78;5059235;28;20208;-85
2024/03/05 10:05:15;;;;;;;12.50;9.80;;;;;;;10.47;78.42;95233.16;5057336;28;20879;-85
2024/03/05 10:07:54;;;;;;;12.80;9.30;;;;;;;10.52;77.78;95220.53;5057390;28;20221;-84
2024/03/05 10:10:22;;;;;;;10.93;8.87;;;;;;;10.58;76.91;95203.56;5056668;28;20217;-84
2024/03/05 10:13:09;;;;;;;13.03;9.80;;;;;;;10.67;76.65;95192.94;5029214;28;20198;-83
2024/03/05 10:15:42;;;;;;;12.60;9.30;;;;;;;10.65;74.41;95122.81;5048287;28;20500;-83
2024/03/05 10:18:36;;;;;;;9.93;8.27;;;;;;;10.69;73.28;95089.75;5048196;28;20203;-84
2024/03/05 10:21:18;;;;;;;10.17;7.90;;;;;;;10.83;71.74;95041.69;5018095;28;20242;-84
2024/03/05 10:23:49;;;;;;;13.47;8.33;;;;;;;10.88;70.91;95016.97;5015325;28;20298;-84
2024/03/05 10:26:24;;;;;;;11.27;7.40;;;;;;;11.01;70.78;95017.00;5017234;28;20238;-83
2024/03/05 10:28:58;;;;;;;9.43;7.40;;;;;;;11.02;69.17;94948.25;5017856;28;20222;-83
2024/03/05 10:31:33;;;;;;;9.90;7.20;;;;;;;11.13;69.71;94957.22;5042693;28;20221;-84
2024/03/05 10:34:06;;;;;;;11.03;8.40;;;;;;;11.15;69.79;94971.50;5056620;28;20267;-84
2024/03/05 10:36:38;;;;;;;11.20;8.93;;;;;;;11.20;69.88;94979.41;5059091;28;20237;-84
2024/03/05 10:41:48;;;;;;;11.53;9.77;;;;;;;11.20;70.21;94984.56;5044513;28;20350;-85
2024/03/05 10:47:06;;;;;;;13.50;9.93;;;;;;;11.32;70.15;94995.91;5052570;28;20215;-84
2024/03/05 10:49:53;;;;;;;13.73;10.40;;;;;;;11.36;70.29;95009.19;5043936;28;20228;-85
2024/03/05 10:52:41;;;;;;;15.70;11.40;;;;;;;11.40;70.59;95012.97;5037661;28;20202;-83
2024/03/05 10:55:12;;;;;;;14.87;11.47;;;;;;;11.40;70.77;95031.78;5036884;28;20591;-84
2024/03/05 11:03:38;;;;;;;14.67;11.33;;;;;;;11.26;70.99;95034.53;5040648;28;20244;-84
2024/03/05 11:06:17;;;;;;;17.13;12.17;;;;;;;11.21;71.15;95036.88;5055123;28;20247;-83
2024/03/05 11:08:46;;;;;;;15.13;12.20;;;;;;;11.31;71.16;95038.13;5032563;28;20248;-83
2024/03/05 11:11:20;;;;;;;14.70;11.40;;;;;;;11.49;71.03;95041.94;5030888;28;20222;-84
2024/03/05 11:13:58;;;;;;;16.13;12.03;;;;;;;11.49;70.57;95021.31;5012870;28;20716;-83
2024/03/05 11:16:28;;;;;;;14.37;11.40;;;;;;;11.49;70.38;95005.84;5014005;28;20202;-83
2024/03/05 11:19:08;;;;;;;16.10;11.60;;;;;;;11.50;70.23;95002.28;5028122;28;20255;-83
2024/03/05 11:21:41;;;;;;;13.67;10.93;;;;;;;11.52;71.10;95026.88;5053922;28;20198;-82
2024/03/05 11:24:21;;;;;;;13.80;10.50;;;;;;;11.57;71.05;95039.16;5053625;28;20219;-84
2024/03/05 11:27:10;;;;;;;12.97;9.93;;;;;;;11.63;70.83;95028.88;5054001;28;20651;-83
2024/03/05 11:29:38;;;;;;;11.60;10.03;;;;;;;11.61;70.86;95025.69;5056090;28;20229;-83
2024/03/05 11:32:29;;;;;;;11.70;10.00;;;;;;;11.52;70.18;94988.22;5053083;28;20202;-83
2024/03/05 11:35:35;;;;;;;12.10;10.50;;;;;;;11.53;69.87;94976.13;5047190;28;20201;-83
2024/03/05 11:38:07;;;;;;;12.87;10.03;;;;;;;11.66;69.52;94973.53;5034229;28;20739;-82
2024/03/05 11:40:37;;;;;;;11.10;9.87;;;;;;;11.66;69.57;94968.38;5051243;28;20222;-83
2024/03/05 11:43:06;;;;;;;12.70;10.83;;;;;;;11.65;69.11;94946.16;5012106;28;20301;-82
2024/03/05 11:45:43;;;;;;;11.73;10.23;;;;;;;11.58;69.42;94959.03;5013320;28;20275;-83
2024/03/05 11:48:15;;;;;;;11.63;10.13;;;;;;;11.57;69.50;94957.44;5014319;28;20219;-83
2024/03/05 11:50:43;;;;;;;12.50;10.50;;;;;;;11.53;69.57;94958.06;5022541;28;20224;-83
2024/03/05 11:53:11;;;;;;;12.60;10.23;;;;;;;11.49;69.41;94951.72;5056668;28;20206;-84
2024/03/05 11:55:40;;;;;;;12.87;11.37;;;;;;;11.49;69.28;94933.66;5056424;28;20198;-83
2024/03/05 11:58:17;;;;;;;13.07;10.83;;;;;;;11.46;69.09;94934.84;5054924;28;20205;-84
2024/03/05 12:00:46;;;;;;;12.83;11.23;;;;;;;11.31;68.83;94924.72;5055858;28;20239;-83
2024/03/05 12:03:25;;;;;;;14.10;11.40;;;;;;;11.26;69.81;94959.81;5053667;28;20658;-84
2024/03/05 12:06:01;;;;;;;14.47;11.57;;;;;;;11.35;69.64;94967.13;5027348;28;20197;-84
2024/03/05 12:08:32;;;;;;;12.70;11.00;;;;;;;11.45;69.88;94964.19;5050247;28;20227;-83
2024/03/05 12:11:02;;;;;;;13.03;11.60;;;;;;;11.46;69.04;94939.22;5047573;28;20501;-84
2024/03/05 12:13:34;;;;;;;13.77;11.70;;;;;;;11.42;69.34;94938.81;5016452;28;20199;-84
2024/03/05 12:16:08;;;;;;;13.00;11.47;;;;;;;11.46;69.22;94952.09;5015775;28;20239;-85
2024/03/05 12:18:35;;;;;;;13.40;11.27;;;;;;;11.47;68.76;94933.06;5016094;28;20237;-83
2024/03/05 12:21:06;;;;;;;13.07;11.67;;;;;;;11.53;69.04;94929.72;5016489;28;20226;-84
2024/03/05 12:23:35;;;;;;;14.37;12.83;;;;;;;11.47;68.88;94925.34;5032712;28;20212;-84